sensor_id;sensor_type;location;lat;lon;timestamp;P1;durP1;ratioP1;P2;durP2;ratioP2
30505;SDS011;17292;51.600;4.994;2024-01-30T00:02:14;20.60;;;3.60;;
30505;SDS011;17292;51.600;4.994;2024-01-30T00:04:41;12.32;;;3.00;;
30505;SDS011;17292;51.600;4.994;2024-01-30T00:07:07;7.75;;;2.40;;
30505;SDS011;17292;51.600;4.994;2024-01-30T00:09:33;8.52;;;3.38;;
30505;SDS011;17292;51.600;4.994;2024-01-30T00:12:00;8.75;;;3.03;;
30505;SDS011;17292;51.600;4.994;2024-01-30T00:14:26;9.18;;;3.13;;
30505;SDS011;17292;51.600;4.994;2024-01-30T00:16:52;8.75;;;2.95;;
30505;SDS011;17292;51.600;4.994;2024-01-30T00:19:18;8.27;;;2.65;;
30505;SDS011;17292;51.600;4.994;2024-01-30T00:21:45;8.77;;;2.97;;
30505;SDS011;17292;51.600;4.994;2024-01-30T00:24:11;9.70;;;3.10;;
30505;SDS011;17292;51.600;4.994;2024-01-30T00:26:37;9.07;;;3.10;;
30505;SDS011;17292;51.600;4.994;2024-01-30T00:29:03;6.15;;;2.85;;
30505;SDS011;17292;51.600;4.994;2024-01-30T00:31:29;9.35;;;3.40;;
30505;SDS011;17292;51.600;4.994;2024-01-30T00:33:55;9.45;;;3.13;;
30505;SDS011;17292;51.600;4.994;2024-01-30T00:36:22;12.88;;;3.42;;
30505;SDS011;17292;51.600;4.994;2024-01-30T00:38:48;9.13;;;2.95;;
30505;SDS011;17292;51.600;4.994;2024-01-30T00:41:15;7.13;;;2.90;;
30505;SDS011;17292;51.600;4.994;2024-01-30T00:43:43;14.07;;;3.35;;
30505;SDS011;17292;51.600;4.994;2024-01-30T00:46:09;10.45;;;3.15;;
30505;SDS011;17292;51.600;4.994;2024-01-30T00:48:35;8.57;;;3.15;;
30505;SDS011;17292;51.600;4.994;2024-01-30T00:51:02;5.90;;;2.40;;
30505;SDS011;17292;51.600;4.994;2024-01-30T00:53:28;6.95;;;2.65;;
30505;SDS011;17292;51.600;4.994;2024-01-30T00:55:54;9.57;;;3.13;;
30505;SDS011;17292;51.600;4.994;2024-01-30T00:58:20;11.70;;;4.00;;
30505;SDS011;17292;51.600;4.994;2024-01-30T01:00:46;13.43;;;3.88;;
30505;SDS011;17292;51.600;4.994;2024-01-30T01:03:12;9.40;;;3.42;;
30505;SDS011;17292;51.600;4.994;2024-01-30T01:05:39;14.45;;;4.63;;
30505;SDS011;17292;51.600;4.994;2024-01-30T01:08:05;9.32;;;3.17;;
30505;SDS011;17292;51.600;4.994;2024-01-30T01:10:31;14.75;;;3.72;;
30505;SDS011;17292;51.600;4.994;2024-01-30T01:12:58;13.00;;;4.03;;
30505;SDS011;17292;51.600;4.994;2024-01-30T01:15:24;6.10;;;3.00;;
30505;SDS011;17292;51.600;4.994;2024-01-30T01:17:50;6.20;;;2.83;;
30505;SDS011;17292;51.600;4.994;2024-01-30T01:20:16;9.38;;;3.55;;
30505;SDS011;17292;51.600;4.994;2024-01-30T01:22:42;7.45;;;3.60;;
30505;SDS011;17292;51.600;4.994;2024-01-30T01:25:08;8.40;;;3.47;;
30505;SDS011;17292;51.600;4.994;2024-01-30T01:27:35;7.20;;;3.65;;
30505;SDS011;17292;51.600;4.994;2024-01-30T01:30:07;6.95;;;3.30;;
30505;SDS011;17292;51.600;4.994;2024-01-30T01:32:34;8.07;;;3.40;;
30505;SDS011;17292;51.600;4.994;2024-01-30T01:35:01;6.85;;;3.75;;
30505;SDS011;17292;51.600;4.994;2024-01-30T01:37:29;8.82;;;3.53;;
30505;SDS011;17292;51.600;4.994;2024-01-30T01:39:55;10.35;;;3.33;;
30505;SDS011;17292;51.600;4.994;2024-01-30T01:42:21;9.73;;;3.22;;
30505;SDS011;17292;51.600;4.994;2024-01-30T01:44:47;6.53;;;2.70;;
30505;SDS011;17292;51.600;4.994;2024-01-30T01:47:14;4.22;;;3.05;;
30505;SDS011;17292;51.600;4.994;2024-01-30T01:49:40;6.82;;;2.80;;
30505;SDS011;17292;51.600;4.994;2024-01-30T01:52:06;9.98;;;3.45;;
30505;SDS011;17292;51.600;4.994;2024-01-30T01:54:32;7.18;;;3.15;;
30505;SDS011;17292;51.600;4.994;2024-01-30T01:56:59;6.75;;;2.92;;
30505;SDS011;17292;51.600;4.994;2024-01-30T01:59:25;6.30;;;2.90;;
30505;SDS011;17292;51.600;4.994;2024-01-30T02:01:52;9.07;;;3.20;;
30505;SDS011;17292;51.600;4.994;2024-01-30T02:04:19;6.85;;;2.72;;
30505;SDS011;17292;51.600;4.994;2024-01-30T02:06:45;5.13;;;3.00;;
30505;SDS011;17292;51.600;4.994;2024-01-30T02:09:12;7.40;;;3.15;;
30505;SDS011;17292;51.600;4.994;2024-01-30T02:11:38;7.45;;;3.10;;
30505;SDS011;17292;51.600;4.994;2024-01-30T02:14:05;7.32;;;3.40;;
30505;SDS011;17292;51.600;4.994;2024-01-30T02:16:32;8.40;;;2.95;;
30505;SDS011;17292;51.600;4.994;2024-01-30T02:18:58;8.10;;;3.10;;
30505;SDS011;17292;51.600;4.994;2024-01-30T02:21:24;5.70;;;2.72;;
30505;SDS011;17292;51.600;4.994;2024-01-30T02:23:50;8.70;;;3.05;;
30505;SDS011;17292;51.600;4.994;2024-01-30T02:26:18;6.40;;;2.90;;
30505;SDS011;17292;51.600;4.994;2024-01-30T02:28:44;6.25;;;2.53;;
30505;SDS011;17292;51.600;4.994;2024-01-30T02:31:10;8.18;;;2.72;;
30505;SDS011;17292;51.600;4.994;2024-01-30T02:33:37;6.32;;;2.88;;
30505;SDS011;17292;51.600;4.994;2024-01-30T02:36:04;7.65;;;2.50;;
30505;SDS011;17292;51.600;4.994;2024-01-30T02:38:30;7.03;;;3.03;;
30505;SDS011;17292;51.600;4.994;2024-01-30T02:40:56;6.30;;;2.97;;
30505;SDS011;17292;51.600;4.994;2024-01-30T02:43:22;6.78;;;2.55;;
30505;SDS011;17292;51.600;4.994;2024-01-30T02:45:49;6.60;;;2.40;;
30505;SDS011;17292;51.600;4.994;2024-01-30T02:48:15;7.20;;;2.63;;
30505;SDS011;17292;51.600;4.994;2024-01-30T02:50:41;6.80;;;2.63;;
30505;SDS011;17292;51.600;4.994;2024-01-30T02:53:08;5.80;;;3.10;;
30505;SDS011;17292;51.600;4.994;2024-01-30T02:55:34;5.32;;;2.83;;
30505;SDS011;17292;51.600;4.994;2024-01-30T02:58:00;6.60;;;2.85;;
30505;SDS011;17292;51.600;4.994;2024-01-30T03:00:26;7.35;;;2.92;;
30505;SDS011;17292;51.600;4.994;2024-01-30T03:02:52;6.20;;;2.58;;
30505;SDS011;17292;51.600;4.994;2024-01-30T03:05:18;5.18;;;2.67;;
30505;SDS011;17292;51.600;4.994;2024-01-30T03:07:45;5.00;;;2.50;;
30505;SDS011;17292;51.600;4.994;2024-01-30T03:10:11;4.63;;;2.58;;
30505;SDS011;17292;51.600;4.994;2024-01-30T03:12:37;5.28;;;2.55;;
30505;SDS011;17292;51.600;4.994;2024-01-30T03:15:03;6.90;;;2.85;;
30505;SDS011;17292;51.600;4.994;2024-01-30T03:17:29;10.95;;;3.08;;
30505;SDS011;17292;51.600;4.994;2024-01-30T03:19:55;9.50;;;2.63;;
30505;SDS011;17292;51.600;4.994;2024-01-30T03:22:22;5.95;;;3.17;;
30505;SDS011;17292;51.600;4.994;2024-01-30T03:24:48;5.78;;;3.08;;
30505;SDS011;17292;51.600;4.994;2024-01-30T03:27:14;6.28;;;2.92;;
30505;SDS011;17292;51.600;4.994;2024-01-30T03:29:40;6.53;;;2.80;;
30505;SDS011;17292;51.600;4.994;2024-01-30T03:32:06;5.30;;;2.50;;
30505;SDS011;17292;51.600;4.994;2024-01-30T03:34:32;6.82;;;2.72;;
30505;SDS011;17292;51.600;4.994;2024-01-30T03:36:58;8.00;;;2.80;;
30505;SDS011;17292;51.600;4.994;2024-01-30T03:39:25;4.90;;;2.60;;
30505;SDS011;17292;51.600;4.994;2024-01-30T03:41:51;7.07;;;2.97;;
30505;SDS011;17292;51.600;4.994;2024-01-30T03:44:17;4.63;;;2.42;;
30505;SDS011;17292;51.600;4.994;2024-01-30T03:46:43;4.68;;;2.50;;
30505;SDS011;17292;51.600;4.994;2024-01-30T03:49:09;6.93;;;2.58;;
30505;SDS011;17292;51.600;4.994;2024-01-30T03:51:35;6.35;;;2.75;;
30505;SDS011;17292;51.600;4.994;2024-01-30T03:54:01;3.38;;;2.20;;
30505;SDS011;17292;51.600;4.994;2024-01-30T03:56:28;5.07;;;2.22;;
30505;SDS011;17292;51.600;4.994;2024-01-30T03:58:54;5.22;;;2.45;;
30505;SDS011;17292;51.600;4.994;2024-01-30T04:01:21;5.53;;;2.90;;
30505;SDS011;17292;51.600;4.994;2024-01-30T04:03:47;7.93;;;2.65;;
30505;SDS011;17292;51.600;4.994;2024-01-30T04:06:13;6.32;;;2.70;;
30505;SDS011;17292;51.600;4.994;2024-01-30T04:08:39;6.40;;;2.60;;
30505;SDS011;17292;51.600;4.994;2024-01-30T04:11:05;5.75;;;2.83;;
30505;SDS011;17292;51.600;4.994;2024-01-30T04:13:32;7.07;;;3.05;;
30505;SDS011;17292;51.600;4.994;2024-01-30T04:16:02;5.78;;;2.90;;
30505;SDS011;17292;51.600;4.994;2024-01-30T04:18:28;5.85;;;2.85;;
30505;SDS011;17292;51.600;4.994;2024-01-30T04:20:54;5.18;;;2.78;;
30505;SDS011;17292;51.600;4.994;2024-01-30T04:23:20;5.47;;;2.80;;
30505;SDS011;17292;51.600;4.994;2024-01-30T04:25:47;5.80;;;2.78;;
30505;SDS011;17292;51.600;4.994;2024-01-30T04:28:13;8.32;;;2.90;;
30505;SDS011;17292;51.600;4.994;2024-01-30T04:30:39;6.72;;;2.85;;
30505;SDS011;17292;51.600;4.994;2024-01-30T04:33:05;6.43;;;2.42;;
30505;SDS011;17292;51.600;4.994;2024-01-30T04:35:31;6.70;;;2.80;;
30505;SDS011;17292;51.600;4.994;2024-01-30T04:37:58;4.85;;;2.50;;
30505;SDS011;17292;51.600;4.994;2024-01-30T04:40:24;5.05;;;2.35;;
30505;SDS011;17292;51.600;4.994;2024-01-30T04:42:50;5.43;;;2.88;;
30505;SDS011;17292;51.600;4.994;2024-01-30T04:45:16;4.03;;;2.00;;
30505;SDS011;17292;51.600;4.994;2024-01-30T04:47:42;4.47;;;2.53;;
30505;SDS011;17292;51.600;4.994;2024-01-30T04:50:09;3.83;;;2.30;;
30505;SDS011;17292;51.600;4.994;2024-01-30T04:52:35;4.15;;;2.42;;
30505;SDS011;17292;51.600;4.994;2024-01-30T04:55:01;4.55;;;2.30;;
30505;SDS011;17292;51.600;4.994;2024-01-30T04:57:27;3.97;;;2.63;;
30505;SDS011;17292;51.600;4.994;2024-01-30T04:59:54;6.93;;;2.50;;
30505;SDS011;17292;51.600;4.994;2024-01-30T05:02:20;3.60;;;2.22;;
30505;SDS011;17292;51.600;4.994;2024-01-30T05:04:46;8.80;;;2.95;;
30505;SDS011;17292;51.600;4.994;2024-01-30T05:07:12;4.95;;;2.80;;
30505;SDS011;17292;51.600;4.994;2024-01-30T05:09:38;6.18;;;2.95;;
30505;SDS011;17292;51.600;4.994;2024-01-30T05:12:05;4.88;;;2.55;;
30505;SDS011;17292;51.600;4.994;2024-01-30T05:14:31;5.60;;;3.03;;
30505;SDS011;17292;51.600;4.994;2024-01-30T05:16:57;7.15;;;2.97;;
30505;SDS011;17292;51.600;4.994;2024-01-30T05:19:23;3.15;;;2.72;;
30505;SDS011;17292;51.600;4.994;2024-01-30T05:21:49;3.67;;;2.42;;
30505;SDS011;17292;51.600;4.994;2024-01-30T05:24:16;3.92;;;2.60;;
30505;SDS011;17292;51.600;4.994;2024-01-30T05:26:42;7.35;;;2.70;;
30505;SDS011;17292;51.600;4.994;2024-01-30T05:29:08;4.78;;;2.75;;
30505;SDS011;17292;51.600;4.994;2024-01-30T05:31:34;7.25;;;2.90;;
30505;SDS011;17292;51.600;4.994;2024-01-30T05:34:01;3.85;;;2.58;;
30505;SDS011;17292;51.600;4.994;2024-01-30T05:36:27;6.57;;;2.75;;
30505;SDS011;17292;51.600;4.994;2024-01-30T05:38:53;2.50;;;2.30;;
30505;SDS011;17292;51.600;4.994;2024-01-30T05:41:19;6.05;;;3.13;;
30505;SDS011;17292;51.600;4.994;2024-01-30T05:43:50;6.07;;;2.65;;
30505;SDS011;17292;51.600;4.994;2024-01-30T05:46:19;7.82;;;2.40;;
30505;SDS011;17292;51.600;4.994;2024-01-30T05:48:45;5.25;;;2.53;;
30505;SDS011;17292;51.600;4.994;2024-01-30T05:51:12;3.70;;;2.50;;
30505;SDS011;17292;51.600;4.994;2024-01-30T05:53:38;5.72;;;2.60;;
30505;SDS011;17292;51.600;4.994;2024-01-30T05:56:04;3.10;;;2.25;;
30505;SDS011;17292;51.600;4.994;2024-01-30T05:58:31;5.60;;;2.80;;
30505;SDS011;17292;51.600;4.994;2024-01-30T06:00:57;4.38;;;2.70;;
30505;SDS011;17292;51.600;4.994;2024-01-30T06:03:23;4.55;;;2.10;;
30505;SDS011;17292;51.600;4.994;2024-01-30T06:05:49;3.58;;;2.35;;
30505;SDS011;17292;51.600;4.994;2024-01-30T06:08:16;4.78;;;2.67;;
30505;SDS011;17292;51.600;4.994;2024-01-30T06:10:42;4.45;;;2.80;;
30505;SDS011;17292;51.600;4.994;2024-01-30T06:13:08;4.32;;;2.60;;
30505;SDS011;17292;51.600;4.994;2024-01-30T06:15:34;5.38;;;2.55;;
30505;SDS011;17292;51.600;4.994;2024-01-30T06:18:00;6.63;;;2.72;;
30505;SDS011;17292;51.600;4.994;2024-01-30T06:20:26;4.93;;;2.60;;
30505;SDS011;17292;51.600;4.994;2024-01-30T06:22:52;5.85;;;2.78;;
30505;SDS011;17292;51.600;4.994;2024-01-30T06:25:19;3.08;;;2.25;;
30505;SDS011;17292;51.600;4.994;2024-01-30T06:27:45;5.13;;;2.90;;
30505;SDS011;17292;51.600;4.994;2024-01-30T06:30:11;5.75;;;2.25;;
30505;SDS011;17292;51.600;4.994;2024-01-30T06:32:37;4.35;;;2.58;;
30505;SDS011;17292;51.600;4.994;2024-01-30T06:35:04;4.43;;;2.50;;
30505;SDS011;17292;51.600;4.994;2024-01-30T06:37:31;4.80;;;2.88;;
30505;SDS011;17292;51.600;4.994;2024-01-30T06:39:57;7.82;;;2.70;;
30505;SDS011;17292;51.600;4.994;2024-01-30T06:42:23;5.32;;;2.80;;
30505;SDS011;17292;51.600;4.994;2024-01-30T06:44:50;6.47;;;2.60;;
30505;SDS011;17292;51.600;4.994;2024-01-30T06:47:16;14.00;;;3.50;;
30505;SDS011;17292;51.600;4.994;2024-01-30T06:49:42;11.20;;;3.40;;
30505;SDS011;17292;51.600;4.994;2024-01-30T06:52:09;11.15;;;3.15;;
30505;SDS011;17292;51.600;4.994;2024-01-30T06:54:35;9.57;;;2.72;;
30505;SDS011;17292;51.600;4.994;2024-01-30T06:57:01;13.45;;;3.05;;
30505;SDS011;17292;51.600;4.994;2024-01-30T06:59:28;11.88;;;3.10;;
30505;SDS011;17292;51.600;4.994;2024-01-30T07:01:54;9.65;;;3.25;;
30505;SDS011;17292;51.600;4.994;2024-01-30T07:04:20;9.43;;;2.97;;
30505;SDS011;17292;51.600;4.994;2024-01-30T07:06:46;9.45;;;2.83;;
30505;SDS011;17292;51.600;4.994;2024-01-30T07:09:13;10.68;;;2.72;;
30505;SDS011;17292;51.600;4.994;2024-01-30T07:11:39;8.23;;;2.90;;
30505;SDS011;17292;51.600;4.994;2024-01-30T07:14:05;10.27;;;3.05;;
30505;SDS011;17292;51.600;4.994;2024-01-30T07:16:31;3.47;;;2.60;;
30505;SDS011;17292;51.600;4.994;2024-01-30T07:18:57;6.68;;;2.70;;
30505;SDS011;17292;51.600;4.994;2024-01-30T07:21:24;4.93;;;2.47;;
30505;SDS011;17292;51.600;4.994;2024-01-30T07:23:56;8.05;;;3.20;;
30505;SDS011;17292;51.600;4.994;2024-01-30T07:26:22;19.60;;;3.72;;
30505;SDS011;17292;51.600;4.994;2024-01-30T07:28:48;23.77;;;3.88;;
30505;SDS011;17292;51.600;4.994;2024-01-30T07:31:15;8.40;;;3.22;;
30505;SDS011;17292;51.600;4.994;2024-01-30T07:33:41;14.63;;;3.65;;
30505;SDS011;17292;51.600;4.994;2024-01-30T07:36:08;13.77;;;3.85;;
30505;SDS011;17292;51.600;4.994;2024-01-30T07:38:35;16.60;;;4.28;;
30505;SDS011;17292;51.600;4.994;2024-01-30T07:41:01;18.42;;;4.05;;
30505;SDS011;17292;51.600;4.994;2024-01-30T07:43:27;13.00;;;3.35;;
30505;SDS011;17292;51.600;4.994;2024-01-30T07:45:54;22.77;;;4.10;;
30505;SDS011;17292;51.600;4.994;2024-01-30T07:48:20;21.48;;;4.03;;
30505;SDS011;17292;51.600;4.994;2024-01-30T07:50:47;12.05;;;3.15;;
30505;SDS011;17292;51.600;4.994;2024-01-30T07:53:13;10.82;;;2.97;;
30505;SDS011;17292;51.600;4.994;2024-01-30T07:55:39;10.60;;;2.90;;
30505;SDS011;17292;51.600;4.994;2024-01-30T07:58:06;8.10;;;2.70;;
30505;SDS011;17292;51.600;4.994;2024-01-30T08:00:32;8.57;;;2.80;;
30505;SDS011;17292;51.600;4.994;2024-01-30T08:02:59;9.23;;;2.65;;
30505;SDS011;17292;51.600;4.994;2024-01-30T08:05:25;5.45;;;3.00;;
30505;SDS011;17292;51.600;4.994;2024-01-30T08:07:51;7.50;;;3.28;;
30505;SDS011;17292;51.600;4.994;2024-01-30T08:10:17;11.40;;;3.97;;
30505;SDS011;17292;51.600;4.994;2024-01-30T08:12:44;8.05;;;3.05;;
30505;SDS011;17292;51.600;4.994;2024-01-30T08:15:11;10.18;;;3.95;;
30505;SDS011;17292;51.600;4.994;2024-01-30T08:17:40;10.88;;;3.90;;
30505;SDS011;17292;51.600;4.994;2024-01-30T08:20:06;8.88;;;2.70;;
30505;SDS011;17292;51.600;4.994;2024-01-30T08:22:39;7.93;;;3.10;;
30505;SDS011;17292;51.600;4.994;2024-01-30T08:25:06;11.10;;;3.40;;
30505;SDS011;17292;51.600;4.994;2024-01-30T08:27:33;16.27;;;3.65;;
30505;SDS011;17292;51.600;4.994;2024-01-30T08:30:01;14.07;;;3.38;;
30505;SDS011;17292;51.600;4.994;2024-01-30T08:32:27;8.75;;;3.20;;
30505;SDS011;17292;51.600;4.994;2024-01-30T08:34:53;9.38;;;3.30;;
30505;SDS011;17292;51.600;4.994;2024-01-30T08:37:19;11.80;;;4.05;;
30505;SDS011;17292;51.600;4.994;2024-01-30T08:39:45;8.77;;;3.17;;
30505;SDS011;17292;51.600;4.994;2024-01-30T08:42:11;11.20;;;3.45;;
30505;SDS011;17292;51.600;4.994;2024-01-30T08:44:38;13.88;;;3.60;;
30505;SDS011;17292;51.600;4.994;2024-01-30T08:47:04;13.30;;;3.70;;
30505;SDS011;17292;51.600;4.994;2024-01-30T08:49:30;21.48;;;4.38;;
30505;SDS011;17292;51.600;4.994;2024-01-30T08:51:56;9.18;;;3.72;;
30505;SDS011;17292;51.600;4.994;2024-01-30T08:54:23;13.48;;;3.75;;
30505;SDS011;17292;51.600;4.994;2024-01-30T08:56:49;17.35;;;4.00;;
30505;SDS011;17292;51.600;4.994;2024-01-30T08:59:17;14.88;;;4.50;;
30505;SDS011;17292;51.600;4.994;2024-01-30T09:01:44;16.20;;;4.00;;
30505;SDS011;17292;51.600;4.994;2024-01-30T09:04:12;8.18;;;4.35;;
30505;SDS011;17292;51.600;4.994;2024-01-30T09:06:38;10.10;;;3.75;;
30505;SDS011;17292;51.600;4.994;2024-01-30T09:09:04;12.13;;;3.88;;
30505;SDS011;17292;51.600;4.994;2024-01-30T09:11:31;11.10;;;3.08;;
30505;SDS011;17292;51.600;4.994;2024-01-30T09:13:57;13.23;;;3.58;;
30505;SDS011;17292;51.600;4.994;2024-01-30T09:16:23;8.95;;;3.00;;
30505;SDS011;17292;51.600;4.994;2024-01-30T09:18:50;15.32;;;3.40;;
30505;SDS011;17292;51.600;4.994;2024-01-30T09:21:16;7.75;;;3.10;;
30505;SDS011;17292;51.600;4.994;2024-01-30T09:23:42;11.52;;;3.45;;
30505;SDS011;17292;51.600;4.994;2024-01-30T09:26:08;8.70;;;3.53;;
30505;SDS011;17292;51.600;4.994;2024-01-30T09:28:34;13.90;;;3.35;;
30505;SDS011;17292;51.600;4.994;2024-01-30T09:31:01;14.75;;;3.10;;
30505;SDS011;17292;51.600;4.994;2024-01-30T09:33:27;10.20;;;2.80;;
30505;SDS011;17292;51.600;4.994;2024-01-30T09:35:54;14.70;;;3.53;;
30505;SDS011;17292;51.600;4.994;2024-01-30T09:38:20;12.00;;;2.97;;
30505;SDS011;17292;51.600;4.994;2024-01-30T09:40:48;7.85;;;2.83;;
30505;SDS011;17292;51.600;4.994;2024-01-30T09:43:18;12.73;;;3.88;;
30505;SDS011;17292;51.600;4.994;2024-01-30T09:45:48;9.65;;;4.28;;
30505;SDS011;17292;51.600;4.994;2024-01-30T09:48:16;17.15;;;3.72;;
30505;SDS011;17292;51.600;4.994;2024-01-30T09:50:42;10.10;;;3.47;;
30505;SDS011;17292;51.600;4.994;2024-01-30T09:53:08;15.40;;;3.85;;
30505;SDS011;17292;51.600;4.994;2024-01-30T09:55:35;14.23;;;3.72;;
30505;SDS011;17292;51.600;4.994;2024-01-30T09:58:01;15.43;;;3.55;;
30505;SDS011;17292;51.600;4.994;2024-01-30T10:00:28;12.32;;;4.05;;
30505;SDS011;17292;51.600;4.994;2024-01-30T10:02:54;13.02;;;4.22;;
30505;SDS011;17292;51.600;4.994;2024-01-30T10:05:20;14.13;;;4.20;;
30505;SDS011;17292;51.600;4.994;2024-01-30T10:07:54;16.05;;;3.83;;
30505;SDS011;17292;51.600;4.994;2024-01-30T10:10:24;18.95;;;3.30;;
30505;SDS011;17292;51.600;4.994;2024-01-30T10:12:50;18.45;;;3.95;;
30505;SDS011;17292;51.600;4.994;2024-01-30T10:15:17;14.75;;;3.65;;
30505;SDS011;17292;51.600;4.994;2024-01-30T10:17:47;16.58;;;3.70;;
30505;SDS011;17292;51.600;4.994;2024-01-30T10:20:13;14.50;;;3.65;;
30505;SDS011;17292;51.600;4.994;2024-01-30T10:22:40;15.68;;;3.33;;
30505;SDS011;17292;51.600;4.994;2024-01-30T10:25:09;15.57;;;3.35;;
30505;SDS011;17292;51.600;4.994;2024-01-30T10:27:36;18.67;;;3.83;;
30505;SDS011;17292;51.600;4.994;2024-01-30T10:30:02;11.82;;;3.25;;
30505;SDS011;17292;51.600;4.994;2024-01-30T10:32:29;16.70;;;3.85;;
30505;SDS011;17292;51.600;4.994;2024-01-30T10:34:55;9.25;;;3.35;;
30505;SDS011;17292;51.600;4.994;2024-01-30T10:37:21;14.02;;;3.72;;
30505;SDS011;17292;51.600;4.994;2024-01-30T10:39:50;14.38;;;3.75;;
30505;SDS011;17292;51.600;4.994;2024-01-30T10:42:20;7.97;;;3.10;;
30505;SDS011;17292;51.600;4.994;2024-01-30T10:47:21;6.75;;;2.88;;
30505;SDS011;17292;51.600;4.994;2024-01-30T10:49:51;8.77;;;3.20;;
30505;SDS011;17292;51.600;4.994;2024-01-30T10:52:18;7.35;;;3.30;;
30505;SDS011;17292;51.600;4.994;2024-01-30T10:54:44;6.05;;;2.80;;
30505;SDS011;17292;51.600;4.994;2024-01-30T10:57:10;12.85;;;3.00;;
30505;SDS011;17292;51.600;4.994;2024-01-30T10:59:37;12.43;;;3.88;;
30505;SDS011;17292;51.600;4.994;2024-01-30T11:02:03;8.68;;;3.10;;
30505;SDS011;17292;51.600;4.994;2024-01-30T11:04:40;6.88;;;3.35;;
30505;SDS011;17292;51.600;4.994;2024-01-30T11:07:23;9.80;;;3.45;;
30505;SDS011;17292;51.600;4.994;2024-01-30T11:09:50;10.38;;;3.00;;
30505;SDS011;17292;51.600;4.994;2024-01-30T11:12:16;19.35;;;4.05;;
30505;SDS011;17292;51.600;4.994;2024-01-30T11:14:42;7.50;;;3.40;;
30505;SDS011;17292;51.600;4.994;2024-01-30T11:17:09;10.13;;;2.97;;
30505;SDS011;17292;51.600;4.994;2024-01-30T11:19:37;15.32;;;3.05;;
30505;SDS011;17292;51.600;4.994;2024-01-30T11:22:06;13.77;;;3.33;;
30505;SDS011;17292;51.600;4.994;2024-01-30T11:24:41;13.50;;;3.45;;
30505;SDS011;17292;51.600;4.994;2024-01-30T11:27:08;14.27;;;3.55;;
30505;SDS011;17292;51.600;4.994;2024-01-30T11:29:37;12.57;;;3.10;;
30505;SDS011;17292;51.600;4.994;2024-01-30T11:32:04;11.00;;;2.85;;
30505;SDS011;17292;51.600;4.994;2024-01-30T11:34:30;13.93;;;3.25;;
30505;SDS011;17292;51.600;4.994;2024-01-30T11:37:01;10.77;;;2.80;;
30505;SDS011;17292;51.600;4.994;2024-01-30T11:39:29;12.30;;;3.38;;
30505;SDS011;17292;51.600;4.994;2024-01-30T11:41:55;12.45;;;3.22;;
30505;SDS011;17292;51.600;4.994;2024-01-30T11:44:22;11.70;;;3.55;;
30505;SDS011;17292;51.600;4.994;2024-01-30T11:46:49;11.15;;;3.10;;
30505;SDS011;17292;51.600;4.994;2024-01-30T11:49:18;14.10;;;3.25;;
30505;SDS011;17292;51.600;4.994;2024-01-30T11:51:45;10.10;;;3.55;;
30505;SDS011;17292;51.600;4.994;2024-01-30T11:54:13;12.90;;;3.33;;
30505;SDS011;17292;51.600;4.994;2024-01-30T11:56:40;10.88;;;3.30;;
30505;SDS011;17292;51.600;4.994;2024-01-30T11:59:06;16.80;;;3.47;;
30505;SDS011;17292;51.600;4.994;2024-01-30T12:01:32;9.52;;;2.88;;
30505;SDS011;17292;51.600;4.994;2024-01-30T12:03:59;13.98;;;3.65;;
30505;SDS011;17292;51.600;4.994;2024-01-30T12:06:25;8.98;;;2.88;;
30505;SDS011;17292;51.600;4.994;2024-01-30T12:08:58;14.43;;;3.60;;
30505;SDS011;17292;51.600;4.994;2024-01-30T12:11:25;10.63;;;3.17;;
30505;SDS011;17292;51.600;4.994;2024-01-30T12:13:52;11.60;;;3.50;;
30505;SDS011;17292;51.600;4.994;2024-01-30T12:16:19;13.32;;;3.50;;
30505;SDS011;17292;51.600;4.994;2024-01-30T12:18:45;15.48;;;3.45;;
30505;SDS011;17292;51.600;4.994;2024-01-30T12:21:11;9.23;;;3.28;;
30505;SDS011;17292;51.600;4.994;2024-01-30T12:23:37;22.35;;;3.65;;
30505;SDS011;17292;51.600;4.994;2024-01-30T12:26:04;8.40;;;3.42;;
30505;SDS011;17292;51.600;4.994;2024-01-30T12:28:32;12.85;;;3.33;;
30505;SDS011;17292;51.600;4.994;2024-01-30T12:31:02;13.18;;;3.70;;
30505;SDS011;17292;51.600;4.994;2024-01-30T12:33:28;16.05;;;3.60;;
30505;SDS011;17292;51.600;4.994;2024-01-30T12:35:55;10.07;;;3.42;;
30505;SDS011;17292;51.600;4.994;2024-01-30T12:38:22;8.27;;;3.13;;
30505;SDS011;17292;51.600;4.994;2024-01-30T12:40:50;14.20;;;3.38;;
30505;SDS011;17292;51.600;4.994;2024-01-30T12:43:16;13.18;;;3.20;;
30505;SDS011;17292;51.600;4.994;2024-01-30T12:45:42;14.63;;;3.70;;
30505;SDS011;17292;51.600;4.994;2024-01-30T12:48:09;13.55;;;3.63;;
30505;SDS011;17292;51.600;4.994;2024-01-30T12:50:35;17.35;;;4.18;;
30505;SDS011;17292;51.600;4.994;2024-01-30T12:53:01;9.40;;;3.33;;
30505;SDS011;17292;51.600;4.994;2024-01-30T12:55:27;9.07;;;2.92;;
30505;SDS011;17292;51.600;4.994;2024-01-30T12:57:55;12.30;;;3.50;;
30505;SDS011;17292;51.600;4.994;2024-01-30T13:00:21;14.68;;;3.42;;
30505;SDS011;17292;51.600;4.994;2024-01-30T13:02:48;11.80;;;3.10;;
30505;SDS011;17292;51.600;4.994;2024-01-30T13:05:14;17.48;;;3.90;;
30505;SDS011;17292;51.600;4.994;2024-01-30T13:07:40;17.05;;;3.85;;
30505;SDS011;17292;51.600;4.994;2024-01-30T13:10:06;15.88;;;3.40;;
30505;SDS011;17292;51.600;4.994;2024-01-30T13:12:33;16.30;;;3.67;;
30505;SDS011;17292;51.600;4.994;2024-01-30T13:14:59;12.43;;;3.63;;
30505;SDS011;17292;51.600;4.994;2024-01-30T13:17:30;9.30;;;3.25;;
30505;SDS011;17292;51.600;4.994;2024-01-30T13:19:56;10.70;;;3.75;;
30505;SDS011;17292;51.600;4.994;2024-01-30T13:22:23;12.35;;;3.58;;
30505;SDS011;17292;51.600;4.994;2024-01-30T13:24:49;10.45;;;3.53;;
30505;SDS011;17292;51.600;4.994;2024-01-30T13:27:16;10.70;;;3.75;;
30505;SDS011;17292;51.600;4.994;2024-01-30T13:29:42;6.55;;;3.25;;
30505;SDS011;17292;51.600;4.994;2024-01-30T13:32:09;8.52;;;3.22;;
30505;SDS011;17292;51.600;4.994;2024-01-30T13:34:35;15.02;;;3.35;;
30505;SDS011;17292;51.600;4.994;2024-01-30T13:37:01;7.28;;;3.30;;
30505;SDS011;17292;51.600;4.994;2024-01-30T13:39:27;9.23;;;3.30;;
30505;SDS011;17292;51.600;4.994;2024-01-30T13:41:54;8.63;;;3.70;;
30505;SDS011;17292;51.600;4.994;2024-01-30T13:44:20;10.70;;;3.25;;
30505;SDS011;17292;51.600;4.994;2024-01-30T13:46:46;14.93;;;3.35;;
30505;SDS011;17292;51.600;4.994;2024-01-30T13:49:13;13.48;;;3.30;;
30505;SDS011;17292;51.600;4.994;2024-01-30T13:51:39;13.57;;;3.90;;
30505;SDS011;17292;51.600;4.994;2024-01-30T13:54:05;10.55;;;3.17;;
30505;SDS011;17292;51.600;4.994;2024-01-30T13:56:31;9.15;;;3.05;;
30505;SDS011;17292;51.600;4.994;2024-01-30T13:58:58;12.93;;;3.67;;
30505;SDS011;17292;51.600;4.994;2024-01-30T14:01:26;22.10;;;3.97;;
30505;SDS011;17292;51.600;4.994;2024-01-30T14:03:52;18.10;;;3.83;;
30505;SDS011;17292;51.600;4.994;2024-01-30T14:06:18;16.90;;;4.07;;
30505;SDS011;17292;51.600;4.994;2024-01-30T14:08:44;28.67;;;3.90;;
30505;SDS011;17292;51.600;4.994;2024-01-30T14:11:11;25.02;;;4.28;;
30505;SDS011;17292;51.600;4.994;2024-01-30T14:13:37;24.38;;;3.75;;
30505;SDS011;17292;51.600;4.994;2024-01-30T14:16:03;23.77;;;4.68;;
30505;SDS011;17292;51.600;4.994;2024-01-30T14:18:29;32.58;;;4.93;;
30505;SDS011;17292;51.600;4.994;2024-01-30T14:20:56;22.58;;;4.40;;
30505;SDS011;17292;51.600;4.994;2024-01-30T14:23:22;17.75;;;3.72;;
30505;SDS011;17292;51.600;4.994;2024-01-30T14:25:48;19.23;;;3.53;;
30505;SDS011;17292;51.600;4.994;2024-01-30T14:28:16;18.77;;;3.95;;
30505;SDS011;17292;51.600;4.994;2024-01-30T14:30:43;25.13;;;3.92;;
30505;SDS011;17292;51.600;4.994;2024-01-30T14:33:09;27.95;;;4.05;;
30505;SDS011;17292;51.600;4.994;2024-01-30T14:35:35;21.77;;;3.90;;
30505;SDS011;17292;51.600;4.994;2024-01-30T14:38:01;17.75;;;3.33;;
30505;SDS011;17292;51.600;4.994;2024-01-30T14:40:30;23.95;;;3.38;;
30505;SDS011;17292;51.600;4.994;2024-01-30T14:42:56;18.15;;;3.65;;